WICT2: Wichita River At Wichita Falls, TX

                                SHEF ID:       WICT2     Wichita Rv at Wichita Falls, TX
STATION TYPE:
Regulating: Stage = 18.50, Flow = 5482

PRECIP STAGE RIV-FLOW WTR-TEMP CONDUCT BAT-LOAD
in ft cfs F umho/cm volt
Ccp-Rev Ccp-Rev Ccp-Rev Ccp-Rev Ccp-Rev Ccp-Rev
(America/Chicago)
04/25 00:00 ---- 2.20 42 77.83 4626 12.06
04/25 01:00 ---- 2.19 41 77.20 4658 12.04
04/25 02:00 ---- 0.19 0 76.55 4662 12.02
04/25 03:00 ---- 2.20 42 75.96 4671 12.02
04/25 04:00 ---- 2.20 42 75.34 4692 11.95
04/25 05:00 ---- 2.20 42 74.71 4696 11.98
04/25 06:00 ---- 2.19 41 74.19 4677 11.98
04/25 07:00 ---- 2.19 41 73.56 4717 11.97
04/25 08:00 ---- 2.18 40 73.15 4774 11.98
04/25 09:00 ---- 2.19 41 72.91 4799 12.03
04/25 10:00 ---- 2.18 40 73.24 4795 12.62
04/25 11:00 ---- 2.15 37 74.17 4808 13.06
04/25 12:00 ---- 2.16 38 75.67 4779 12.76
04/25 13:00 ---- 2.15 37 77.47 4793 12.63
04/25 14:00 ---- 2.14 37 79.38 4786 12.42
04/25 15:00 ---- 2.16 38 80.92 4931 12.35
04/25 16:00 ---- 2.15 37 81.73 4915 12.37
04/25 17:00 ---- 2.16 38 81.37 4945 12.18
04/25 18:00 ---- 2.64 89 79.18 4141 12.25
04/25 19:00 ---- 3.03 140 77.61 3704 12.24
04/25 20:00 ---- 3.17 161 76.35 2053 12.14
04/25 21:00 ---- 2.93 127 75.24 1587 12.12
04/25 22:00 ---- 2.71 97 75.54 2342 12.11
04/25 23:00 ---- 2.62 86 75.38 2711 12.10
Data processed at Sun 26Apr2026 04:58 GMT

NOTICE: If you are parsing this page

Please convert to using our Data API. Starting early 2026 we will be migrating to: https://water.usace.army.mil with modern pages rendered in JavaScript. When this migration completes you will no longer be able to scrape this page! CWMSDataAPI (CDA)

Timeseries IDs (TSIDs)

TSIDs used from left to right in the data table
WFAL.Precip-Inc.Total.1Hour.1Hour.Ccp-Rev
WFAL.Stage.Inst.1Hour.0.Ccp-Rev
WFAL.Flow.Inst.1Hour.0.Ccp-Rev
WFAL.Temp-Water.Inst.1Hour.0.Ccp-Rev
WFAL.Cond-Water.Inst.1Hour.0.Ccp-Rev
WFAL.Volt-Battery Load.Inst.1Hour.0.Ccp-Rev

                            

All information presented herein is the property of the government of the United States of America and may be revised or deleted at any time without prior notice. Dissemination of this information without the expressed written consent of the Public Affairs Office, Tulsa District U.S. Army Corps of Engineers is strictly prohibited. These data are gathered electronically and, as presented, have NOT undergone any form of quality control. These data are NOT guaranteed to be valid or correct.